createdAt,value
2023-04-02T00:01:26.680Z,83.93
2023-04-02T00:04:14.565Z,81.97
2023-04-02T00:06:45.765Z,82.10
2023-04-02T00:09:36.992Z,81.55
2023-04-02T00:12:20.630Z,82.30
2023-04-02T00:14:52.572Z,82.77
2023-04-02T00:17:21.757Z,83.50
2023-04-02T00:19:56.329Z,80.87
2023-04-02T00:22:28.500Z,82.11
2023-04-02T00:24:57.454Z,83.13
2023-04-02T00:27:25.242Z,83.60
2023-04-02T00:29:54.959Z,83.27
2023-04-02T00:32:26.018Z,83.69
2023-04-02T00:34:56.104Z,83.12
2023-04-02T00:37:28.039Z,81.03
2023-04-02T00:40:01.586Z,81.46
2023-04-02T00:42:32.181Z,82.82
2023-04-02T00:45:02.429Z,81.20
2023-04-02T00:47:36.236Z,82.53
2023-04-02T00:50:19.741Z,80.38
2023-04-02T00:52:50.071Z,80.90
2023-04-02T00:55:22.737Z,81.59
2023-04-02T00:57:52.227Z,80.63
2023-04-02T01:00:25.261Z,82.26
2023-04-02T01:03:43.940Z,81.98
2023-04-02T01:06:16.711Z,82.04
2023-04-02T01:08:56.710Z,81.50
2023-04-02T01:11:37.877Z,82.61
2023-04-02T01:14:16.581Z,82.30
2023-04-02T01:16:54.135Z,81.82
2023-04-02T01:19:55.199Z,82.14
2023-04-02T01:22:35.237Z,80.73
2023-04-02T01:25:04.468Z,80.11
2023-04-02T01:27:39.805Z,80.47
2023-04-02T01:30:12.666Z,80.77
2023-04-02T01:32:41.770Z,81.25
2023-04-02T01:35:11.306Z,82.67
2023-04-02T01:37:49.696Z,81.74
2023-04-02T01:40:33.953Z,82.24
2023-04-02T01:43:14.283Z,81.67
2023-04-02T01:45:43.561Z,81.34
2023-04-02T01:48:16.697Z,82.12
2023-04-02T01:50:46.720Z,82.18
2023-04-02T01:53:16.656Z,81.80
2023-04-02T01:55:48.759Z,82.95
2023-04-02T01:58:20.697Z,83.26
2023-04-02T02:00:54.375Z,80.54
2023-04-02T02:03:22.767Z,82.85
2023-04-02T02:05:51.458Z,82.81
2023-04-02T02:08:31.248Z,83.11
2023-04-02T02:10:59.149Z,83.79
2023-04-02T02:13:27.031Z,81.73
2023-04-02T02:15:58.566Z,83.58
2023-04-02T02:18:27.603Z,81.74
2023-04-02T02:20:58.258Z,82.93
2023-04-02T02:23:29.010Z,82.06
2023-04-02T02:25:56.941Z,82.36
2023-04-02T02:28:28.837Z,80.79
2023-04-02T02:31:01.392Z,81.39
2023-04-02T02:33:31.829Z,80.56
2023-04-02T02:36:02.748Z,80.29
2023-04-02T02:38:41.854Z,80.83
2023-04-02T02:41:17.455Z,79.45
2023-04-02T02:43:50.212Z,78.38
2023-04-02T02:46:24.108Z,78.20
2023-04-02T02:48:54.965Z,79.12
2023-04-02T02:51:28.237Z,78.10
2023-04-02T02:54:00.337Z,78.42
2023-04-02T02:56:32.169Z,78.67
2023-04-02T02:59:00.322Z,78.55
2023-04-02T03:01:32.204Z,77.56
2023-04-02T03:04:01.622Z,78.37
2023-04-02T03:06:29.769Z,78.57
2023-04-02T03:09:04.428Z,77.56
2023-04-02T03:11:38.107Z,77.89
2023-04-02T03:14:16.906Z,78.03
2023-04-02T03:16:50.097Z,78.14
2023-04-02T03:19:28.499Z,77.74
2023-04-02T03:22:03.424Z,77.89
2023-04-02T03:24:37.192Z,76.18
2023-04-02T03:27:11.416Z,77.97
2023-04-02T03:29:43.361Z,78.04
2023-04-02T03:32:18.499Z,77.35
2023-04-02T03:34:50.143Z,78.64
2023-04-02T03:37:22.488Z,78.44
2023-04-02T03:39:55.880Z,79.39
2023-04-02T03:42:26.156Z,77.98
2023-04-02T03:44:58.475Z,77.40
2023-04-02T03:47:34.187Z,77.43
2023-04-02T03:50:07.429Z,78.14
2023-04-02T03:52:37.712Z,78.77
2023-04-02T03:55:15.948Z,78.86
2023-04-02T03:57:48.190Z,79.04
2023-04-02T04:00:20.821Z,79.47
2023-04-02T04:02:53.275Z,78.20
2023-04-02T04:05:26.239Z,78.46
2023-04-02T04:08:00.923Z,79.76
2023-04-02T04:10:30.368Z,77.74
2023-04-02T04:13:05.013Z,79.65
2023-04-02T04:15:37.971Z,79.73
2023-04-02T04:18:19.401Z,80.28
2023-04-02T04:20:56.304Z,78.96
2023-04-02T04:23:30.276Z,78.80
2023-04-02T04:26:02.033Z,79.36
2023-04-02T04:28:38.423Z,79.30
2023-04-02T04:31:18.081Z,78.79
2023-04-02T04:33:54.797Z,79.47
2023-04-02T04:36:29.011Z,78.62
2023-04-02T04:39:00.523Z,78.85
2023-04-02T04:41:32.839Z,79.60
2023-04-02T04:44:08.064Z,78.59
2023-04-02T04:46:41.770Z,78.42
2023-04-02T04:49:15.649Z,80.39
2023-04-02T04:51:48.058Z,79.58
2023-04-02T04:54:17.043Z,80.82
2023-04-02T04:56:48.508Z,79.42
2023-04-02T04:59:21.921Z,80.17
2023-04-02T05:01:54.641Z,78.42
2023-04-02T05:04:27.704Z,80.02
2023-04-02T05:06:58.414Z,78.74
2023-04-02T05:09:33.571Z,78.98
2023-04-02T05:12:07.810Z,77.98
2023-04-02T05:14:41.275Z,80.04
2023-04-02T05:17:15.587Z,79.80
2023-04-02T05:19:49.631Z,80.33
2023-04-02T05:22:27.175Z,78.74
2023-04-02T05:25:04.574Z,78.32
2023-04-02T05:27:41.533Z,78.26
2023-04-02T05:30:17.438Z,78.89
2023-04-02T05:32:51.398Z,78.56
2023-04-02T05:35:26.596Z,77.97
2023-04-02T05:37:54.517Z,79.00
2023-04-02T05:40:26.839Z,78.16
2023-04-02T05:42:55.786Z,77.89
2023-04-02T05:45:32.867Z,78.39
2023-04-02T05:48:04.576Z,76.05
2023-04-02T05:50:39.969Z,76.72
2023-04-02T05:53:12.153Z,76.76
2023-04-02T05:55:46.176Z,74.75
2023-04-02T05:58:35.282Z,75.23
2023-04-02T06:01:22.926Z,75.14
2023-04-02T06:04:01.724Z,75.17
2023-04-02T06:06:45.132Z,75.41
2023-04-02T06:09:16.795Z,76.22
2023-04-02T06:11:47.526Z,75.35
2023-04-02T06:14:17.945Z,75.66
2023-04-02T06:16:47.204Z,75.00
2023-04-02T06:19:20.536Z,73.16
2023-04-02T06:21:52.689Z,70.74
2023-04-02T06:24:26.268Z,67.81
2023-04-02T06:26:58.724Z,64.54
2023-04-02T06:29:33.981Z,62.21
2023-04-02T06:32:03.138Z,63.10
2023-04-02T06:34:32.822Z,58.51
2023-04-02T06:37:04.993Z,58.17
2023-04-02T06:39:32.897Z,58.60
2023-04-02T06:42:03.932Z,58.03
2023-04-02T06:44:36.316Z,56.20
2023-04-02T06:47:08.363Z,53.11
2023-04-02T06:49:43.709Z,54.18
2023-04-02T06:52:20.953Z,53.67
2023-04-02T06:54:49.312Z,55.50
2023-04-02T06:57:18.335Z,56.37
2023-04-02T06:59:46.225Z,56.22
2023-04-02T07:02:27.716Z,57.68
2023-04-02T07:05:00.053Z,60.05
2023-04-02T07:07:29.283Z,59.60
2023-04-02T07:09:57.934Z,59.19
2023-04-02T07:12:26.733Z,58.44
2023-04-02T07:14:54.768Z,55.61
2023-04-02T07:17:22.915Z,62.63
2023-04-02T07:19:50.713Z,59.59
2023-04-02T07:22:19.844Z,62.58
2023-04-02T07:24:48.937Z,56.94
2023-04-02T07:27:16.958Z,60.20
2023-04-02T07:29:44.774Z,60.33
2023-04-02T07:32:13.259Z,61.93
2023-04-02T07:34:42.378Z,58.70
2023-04-02T07:37:13.895Z,57.25
2023-04-02T07:39:41.748Z,60.56
2023-04-02T07:42:11.254Z,60.44
2023-04-02T07:44:39.041Z,56.06
2023-04-02T07:47:07.422Z,58.31
2023-04-02T07:49:35.242Z,60.40
2023-04-02T07:52:02.975Z,58.73
2023-04-02T07:54:30.786Z,58.99
2023-04-02T07:56:58.489Z,57.30
2023-04-02T07:59:27.561Z,55.66
2023-04-02T08:01:55.464Z,50.03
2023-04-02T08:04:23.875Z,49.04
2023-04-02T08:06:52.880Z,57.22
2023-04-02T08:09:20.786Z,53.27
2023-04-02T08:11:48.609Z,53.83
2023-04-02T08:14:16.320Z,58.55
2023-04-02T08:16:50.812Z,59.71
2023-04-02T08:19:18.862Z,62.56
2023-04-02T08:21:48.088Z,59.77
2023-04-02T08:24:17.937Z,51.25
2023-04-02T08:26:45.725Z,48.51
2023-04-02T08:29:13.420Z,45.19
2023-04-02T08:31:41.660Z,49.38
2023-04-02T08:34:10.919Z,50.54
2023-04-02T08:36:40.426Z,55.88
2023-04-02T08:39:11.633Z,55.06
2023-04-02T08:41:45.971Z,54.31
2023-04-02T08:44:23.507Z,51.26
2023-04-02T08:46:55.493Z,55.43
2023-04-02T08:49:32.276Z,53.25
2023-04-02T08:52:00.776Z,49.74
2023-04-02T08:54:30.593Z,51.91
2023-04-02T08:57:03.093Z,52.24
2023-04-02T08:59:35.476Z,52.78
2023-04-02T09:02:22.471Z,51.32
2023-04-02T09:04:52.453Z,49.21
2023-04-02T09:07:20.330Z,51.58
2023-04-02T09:09:49.835Z,51.25
2023-04-02T09:12:20.442Z,54.16
2023-04-02T09:15:00.968Z,54.75
2023-04-02T09:17:32.810Z,53.82
2023-04-02T09:20:17.926Z,56.90
2023-04-02T09:22:46.939Z,58.05
2023-04-02T09:25:18.092Z,58.76
2023-04-02T09:27:49.123Z,56.68
2023-04-02T09:30:29.527Z,58.35
2023-04-02T09:33:00.795Z,58.81
2023-04-02T09:35:32.415Z,60.09
2023-04-02T09:38:19.715Z,58.90
2023-04-02T09:40:51.107Z,59.93
2023-04-02T09:43:20.904Z,60.65
2023-04-02T09:45:59.339Z,59.32
2023-04-02T09:48:31.300Z,58.53
2023-04-02T09:51:15.365Z,59.00
2023-04-02T09:53:45.933Z,60.01
2023-04-02T09:56:19.388Z,59.84
2023-04-02T09:59:02.536Z,57.38
2023-04-02T10:01:33.138Z,56.25
2023-04-02T10:04:03.570Z,56.61
2023-04-02T10:06:35.234Z,55.71
2023-04-02T10:09:21.248Z,53.60
2023-04-02T10:11:51.063Z,54.74
2023-04-02T10:14:22.801Z,53.99
2023-04-02T10:16:53.433Z,53.96
2023-04-02T10:19:29.050Z,55.24
2023-04-02T10:22:01.098Z,54.22
2023-04-02T10:24:29.758Z,55.55
2023-04-02T10:27:06.675Z,55.70
2023-04-02T10:29:53.157Z,54.64
2023-04-02T10:32:26.266Z,56.88
2023-04-02T10:34:59.476Z,55.96
2023-04-02T10:38:08.961Z,56.57
2023-04-02T10:40:41.782Z,56.21
2023-04-02T10:43:44.996Z,55.25
2023-04-02T10:46:24.491Z,55.88
2023-04-02T10:49:00.465Z,54.61
2023-04-02T10:51:34.828Z,54.58
2023-04-02T10:54:13.973Z,54.87
2023-04-02T10:56:51.124Z,55.80
2023-04-02T10:59:22.226Z,55.43
2023-04-02T11:01:52.137Z,55.71
2023-04-02T11:04:23.616Z,55.83
2023-04-02T11:07:07.225Z,55.68
2023-04-02T11:09:44.970Z,55.03
2023-04-02T11:12:23.052Z,54.52
2023-04-02T11:14:52.600Z,54.67
2023-04-02T11:17:20.720Z,53.31
2023-04-02T11:19:48.601Z,55.70
2023-04-02T11:22:18.207Z,55.59
2023-04-02T11:24:47.866Z,54.70
2023-04-02T11:27:27.838Z,56.03
2023-04-02T11:30:04.115Z,56.70
2023-04-02T11:32:42.437Z,56.32
2023-04-02T11:35:27.794Z,55.80
2023-04-02T11:37:56.877Z,55.93
2023-04-02T11:40:49.380Z,53.23
2023-04-02T11:44:00.449Z,52.20
2023-04-02T11:46:41.978Z,53.44
2023-04-02T11:49:37.664Z,54.17
2023-04-02T11:52:19.988Z,50.67
2023-04-02T11:54:55.860Z,52.36
2023-04-02T11:57:36.580Z,53.18
2023-04-02T12:00:20.187Z,54.01
2023-04-02T12:03:03.492Z,54.24
2023-04-02T12:05:37.863Z,54.30
2023-04-02T12:08:31.923Z,54.56
2023-04-02T12:11:02.006Z,53.62
2023-04-02T12:13:51.476Z,52.63
2023-04-02T12:16:21.261Z,52.34
2023-04-02T12:18:53.989Z,54.09
2023-04-02T12:21:25.636Z,53.18
2023-04-02T12:23:56.336Z,53.15
2023-04-02T12:26:37.381Z,52.66
2023-04-02T12:29:24.418Z,53.54
2023-04-02T12:31:54.720Z,52.81
2023-04-02T12:34:24.584Z,52.53
2023-04-02T12:36:54.426Z,52.62
2023-04-02T12:39:22.675Z,52.59
2023-04-02T12:41:50.471Z,52.21
2023-04-02T12:44:21.658Z,51.71
2023-04-02T12:46:51.260Z,50.40
2023-04-02T12:49:31.968Z,51.08
2023-04-02T12:52:02.776Z,51.23
2023-04-02T12:54:34.471Z,52.32
2023-04-02T12:57:46.990Z,51.76
2023-04-02T13:00:36.194Z,52.38
2023-04-02T13:03:18.993Z,53.15
2023-04-02T13:05:52.157Z,53.45
2023-04-02T13:08:23.550Z,52.24
2023-04-02T13:10:56.095Z,51.23
2023-04-02T13:13:28.571Z,52.48
2023-04-02T13:16:09.772Z,50.78
2023-04-02T13:18:39.366Z,51.35
2023-04-02T13:21:28.322Z,52.26
2023-04-02T13:23:56.760Z,52.90
2023-04-02T13:26:27.217Z,51.82
2023-04-02T13:28:59.815Z,52.39
2023-04-02T13:31:28.706Z,54.07
2023-04-02T13:33:56.411Z,54.72
2023-04-02T13:36:25.811Z,53.22
2023-04-02T13:38:53.463Z,54.11
2023-04-02T13:41:24.648Z,53.19
2023-04-02T13:43:53.895Z,53.27
2023-04-02T13:46:24.230Z,53.42
2023-04-02T13:48:53.167Z,54.31
2023-04-02T13:51:23.859Z,53.75
2023-04-02T13:53:58.101Z,55.35
2023-04-02T13:56:26.308Z,54.67
2023-04-02T13:58:54.236Z,55.28
2023-04-02T14:01:25.914Z,54.15
2023-04-02T14:03:55.652Z,54.63
2023-04-02T14:06:31.856Z,53.90
2023-04-02T14:09:06.623Z,56.22
2023-04-02T14:11:47.361Z,55.54
2023-04-02T14:14:38.639Z,55.86
2023-04-02T14:17:18.062Z,54.95
2023-04-02T14:20:01.022Z,55.61
2023-04-02T14:22:44.899Z,56.10
2023-04-02T14:25:19.868Z,55.77
2023-04-02T14:27:58.900Z,55.85
2023-04-02T14:30:36.196Z,55.82
2023-04-02T14:33:11.104Z,54.14
2023-04-02T14:35:44.344Z,54.36
2023-04-02T14:38:19.172Z,55.56
2023-04-02T14:40:51.502Z,54.31
2023-04-02T14:43:24.704Z,54.84
2023-04-02T14:46:03.243Z,55.83
2023-04-02T14:48:47.604Z,57.04
2023-04-02T14:51:23.296Z,56.65
2023-04-02T14:54:04.017Z,56.93
2023-04-02T14:56:38.804Z,56.99
2023-04-02T14:59:20.493Z,56.80
2023-04-02T15:01:54.302Z,56.43
2023-04-02T15:04:26.699Z,56.78
2023-04-02T15:07:00.617Z,57.37
2023-04-02T15:09:33.116Z,57.54
2023-04-02T15:12:08.224Z,57.97
2023-04-02T15:14:42.161Z,57.56
2023-04-02T15:17:11.761Z,56.47
2023-04-02T15:19:39.687Z,56.55
2023-04-02T15:22:29.412Z,58.09
2023-04-02T15:25:07.890Z,58.36
2023-04-02T15:27:57.109Z,59.26
2023-04-02T15:30:28.934Z,56.94
2023-04-02T15:33:18.460Z,58.38
2023-04-02T15:35:52.407Z,57.79
2023-04-02T15:38:26.134Z,58.47
2023-04-02T15:40:59.709Z,59.16
2023-04-02T15:43:31.655Z,58.22
2023-04-02T15:46:10.351Z,59.66
2023-04-02T15:49:01.229Z,59.64
2023-04-02T15:51:40.268Z,58.87
2023-04-02T15:54:21.676Z,59.89
2023-04-02T15:56:56.290Z,59.93
2023-04-02T15:59:52.426Z,59.07
2023-04-02T16:02:52.019Z,60.00
2023-04-02T16:05:29.930Z,62.01
2023-04-02T16:08:13.197Z,61.83
2023-04-02T16:10:43.277Z,61.26
2023-04-02T16:13:18.869Z,62.09
2023-04-02T16:15:52.752Z,63.09
2023-04-02T16:18:35.685Z,62.66
2023-04-02T16:21:04.637Z,63.32
2023-04-02T16:23:36.070Z,60.80
2023-04-02T16:26:13.078Z,61.10
2023-04-02T16:28:48.310Z,60.65
2023-04-02T16:31:24.824Z,61.69
2023-04-02T16:34:02.412Z,63.61
2023-04-02T16:36:46.413Z,62.96
2023-04-02T16:39:28.706Z,61.34
2023-04-02T16:42:08.865Z,62.09
2023-04-02T16:44:46.998Z,62.41
2023-04-02T16:47:29.079Z,62.35
2023-04-02T16:50:03.092Z,62.25
2023-04-02T16:52:41.463Z,61.18
2023-04-02T16:55:24.397Z,60.53
2023-04-02T16:57:59.818Z,60.02
2023-04-02T17:00:35.940Z,59.90
2023-04-02T17:03:26.731Z,59.69
2023-04-02T17:05:59.387Z,59.63
2023-04-02T17:08:31.400Z,60.23
2023-04-02T17:11:02.545Z,59.77
2023-04-02T17:13:39.046Z,58.11
2023-04-02T17:16:15.095Z,59.54
2023-04-02T17:18:47.243Z,59.15
2023-04-02T17:21:18.615Z,59.43
2023-04-02T17:26:24.413Z,58.46
2023-04-02T17:28:52.927Z,58.79
2023-04-02T17:31:23.676Z,59.68
2023-04-02T17:33:52.858Z,59.26
2023-04-02T17:36:33.210Z,58.67
2023-04-02T17:39:11.005Z,60.73
2023-04-02T17:41:43.906Z,60.27
2023-04-02T17:44:46.143Z,59.40
2023-04-02T17:47:20.778Z,60.08
2023-04-02T17:50:08.243Z,61.34
2023-04-02T17:52:41.686Z,60.85
2023-04-02T17:55:22.592Z,61.40
2023-04-02T17:58:01.190Z,61.12
2023-04-02T18:00:55.445Z,59.75
2023-04-02T18:03:36.513Z,61.73
2023-04-02T18:06:12.232Z,60.62
2023-04-02T18:08:51.461Z,60.90
2023-04-02T18:11:30.768Z,61.52
2023-04-02T18:14:01.270Z,61.69
2023-04-02T18:16:44.471Z,63.15
2023-04-02T18:19:18.338Z,63.23
2023-04-02T18:21:55.463Z,63.55
2023-04-02T18:24:39.148Z,64.16
2023-04-02T18:27:40.132Z,63.96
2023-04-02T18:30:16.849Z,64.74
2023-04-02T18:33:05.766Z,63.78
2023-04-02T18:35:35.036Z,64.13
2023-04-02T18:38:20.143Z,63.41
2023-04-02T18:41:00.669Z,65.67
2023-04-02T18:43:38.758Z,65.40
2023-04-02T18:46:17.564Z,65.40
2023-04-02T18:48:56.773Z,65.70
2023-04-02T18:51:26.394Z,65.94
2023-04-02T18:54:03.893Z,63.64
2023-04-02T18:56:32.969Z,65.50
2023-04-02T18:59:15.566Z,63.89
2023-04-02T19:01:48.184Z,63.04
2023-04-02T19:04:20.138Z,63.91
2023-04-02T19:06:53.848Z,63.72
2023-04-02T19:09:28.452Z,62.91
2023-04-02T19:11:56.545Z,62.70
2023-04-02T19:14:24.736Z,64.88
2023-04-02T19:17:03.575Z,63.68
2023-04-02T19:19:38.387Z,64.51
2023-04-02T19:22:16.664Z,62.41
2023-04-02T19:25:20.048Z,62.73
2023-04-02T19:27:58.551Z,62.39
2023-04-02T19:30:38.846Z,61.31
2023-04-02T19:33:16.638Z,61.93
2023-04-02T19:35:49.033Z,61.94
2023-04-02T19:38:33.561Z,64.08
2023-04-02T19:41:10.952Z,64.11
2023-04-02T19:43:38.766Z,63.39
2023-04-02T19:46:07.032Z,63.64
2023-04-02T19:48:44.491Z,64.27
2023-04-02T19:51:12.244Z,66.32
2023-04-02T19:53:40.074Z,66.74
2023-04-02T19:56:09.227Z,66.10
2023-04-02T19:58:37.733Z,64.76
2023-04-02T20:01:05.679Z,65.48
2023-04-02T20:03:33.736Z,64.08
2023-04-02T20:06:01.558Z,66.59
2023-04-02T20:08:29.376Z,64.59
2023-04-02T20:10:58.584Z,64.56
2023-04-02T20:13:27.889Z,65.99
2023-04-02T20:15:55.792Z,68.52
2023-04-02T20:18:23.571Z,65.88
2023-04-02T20:20:51.263Z,70.14
2023-04-02T20:23:20.074Z,70.65
2023-04-02T20:25:52.782Z,71.14
2023-04-02T20:28:20.585Z,71.89
2023-04-02T20:30:51.121Z,70.32
2023-04-02T20:33:19.574Z,72.34
2023-04-02T20:35:47.660Z,72.94
2023-04-02T20:38:15.867Z,71.34
2023-04-02T20:40:44.087Z,72.83
2023-04-02T20:43:12.050Z,75.18
2023-04-02T20:45:39.818Z,72.81
2023-04-02T20:48:09.298Z,73.13
2023-04-02T20:50:37.490Z,71.19
2023-04-02T20:53:05.496Z,72.13
2023-04-02T20:55:33.262Z,74.15
2023-04-02T20:58:01.198Z,73.44
2023-04-02T21:00:28.920Z,74.18
2023-04-02T21:02:57.662Z,76.05
2023-04-02T21:05:26.911Z,76.22
2023-04-02T21:07:54.642Z,75.01
2023-04-02T21:10:22.383Z,76.06
2023-04-02T21:12:50.649Z,72.89
2023-04-02T21:15:18.610Z,72.84
2023-04-02T21:17:46.397Z,75.65
2023-04-02T21:20:14.131Z,73.17
2023-04-02T21:22:43.299Z,71.85
2023-04-02T21:25:11.015Z,72.11
2023-04-02T21:27:38.759Z,73.71
2023-04-02T21:30:07.719Z,76.20
2023-04-02T21:32:35.519Z,76.62
2023-04-02T21:35:03.248Z,76.37
2023-04-02T21:37:31.143Z,77.37
2023-04-02T21:40:00.204Z,75.87
2023-04-02T21:42:28.859Z,74.59
2023-04-02T21:44:56.674Z,76.20
2023-04-02T21:47:24.889Z,74.92
2023-04-02T21:49:52.561Z,77.06
2023-04-02T21:52:20.264Z,74.37
2023-04-02T21:54:47.935Z,74.57
2023-04-02T21:57:17.968Z,73.18
2023-04-02T21:59:46.837Z,73.85
2023-04-02T22:02:14.487Z,76.72
2023-04-02T22:04:42.373Z,74.26
2023-04-02T22:07:10.106Z,75.24
2023-04-02T22:09:37.796Z,74.45
2023-04-02T22:12:07.860Z,74.40
2023-04-02T22:14:36.964Z,74.10
2023-04-02T22:17:04.830Z,76.44
2023-04-02T22:19:33.420Z,73.58
2023-04-02T22:22:01.131Z,72.30
2023-04-02T22:24:28.998Z,71.42
2023-04-02T22:26:56.691Z,69.80
2023-04-02T22:29:24.746Z,70.41
2023-04-02T22:31:53.863Z,69.60
2023-04-02T22:34:22.106Z,74.33
2023-04-02T22:36:49.927Z,73.82
2023-04-02T22:39:17.881Z,72.02
2023-04-02T22:41:45.748Z,70.58
2023-04-02T22:44:15.439Z,69.87
2023-04-02T22:46:43.251Z,69.71
2023-04-02T22:49:12.730Z,69.58
2023-04-02T22:51:40.515Z,69.66
2023-04-02T22:54:08.206Z,70.46
2023-04-02T22:56:37.444Z,71.45
2023-04-02T22:59:05.706Z,74.35
2023-04-02T23:01:35.718Z,72.97
2023-04-02T23:04:05.027Z,71.37
2023-04-02T23:06:34.622Z,71.15
2023-04-02T23:09:02.329Z,69.11
2023-04-02T23:11:30.333Z,70.70
2023-04-02T23:13:58.946Z,70.64
2023-04-02T23:16:28.596Z,71.49
2023-04-02T23:18:57.296Z,72.32
2023-04-02T23:21:25.558Z,71.52
2023-04-02T23:23:55.029Z,73.64
2023-04-02T23:26:24.569Z,74.62
2023-04-02T23:28:52.509Z,74.41
2023-04-02T23:31:22.435Z,75.17
2023-04-02T23:33:51.206Z,73.31
2023-04-02T23:36:22.575Z,73.59
2023-04-02T23:38:54.889Z,75.71
2023-04-02T23:41:26.710Z,77.69
2023-04-02T23:43:54.786Z,76.68
2023-04-02T23:46:22.859Z,77.33
2023-04-02T23:48:51.485Z,79.67
2023-04-02T23:51:19.918Z,80.14
2023-04-02T23:53:48.451Z,78.45
2023-04-02T23:56:16.423Z,78.78
2023-04-02T23:58:45.599Z,76.42
